Am Tubarao — A8ZA9 — position and weather

sailwx.info

Track history (hours):
 
Tides and Currents Weather Stations Pressure Air Temp Water Temp Dewpoint Dewpoint Depression Visibility Wind Speed Wind Dir Waves Ship Positions

Am Tubarao

Last reported at 2018-Jan-24 05:22 UTC. Time now 2018-Feb-18 20:39 UTC.
Position N 49°45' W 003°50'.
Warning: this ship's position is 25 days out of date.

Length 230 m; draft 8.9 m.

Type: Cargo ship. MMSI: 636015171.

Date/timePositionNaut miles runAvg speedWind from/ knotsBaromVisibWave heightAir tempDewpointWater temp
2018-Jan-24 05:22N 49°45' W 003°50'3 7.8
2018-Jan-24 05:00N 49°46' W 003°47'4 8.5
2018-Jan-24 04:29N 49°48' W 003°41'4 9.0
2018-Jan-24 04:00N 49°51' W 003°35'5 9.2
2018-Jan-24 03:26N 49°53' W 003°28'4 8.9
2018-Jan-24 03:00N 49°55' W 003°23'5 9.6
2018-Jan-24 02:28N 49°55' W 003°15'4 9.1
2018-Jan-24 01:59N 49°57' W 003°08'5 8.7
2018-Jan-24 01:27N 49°58' W 003°01'4 8.5
2018-Jan-24 01:00N 49°59' W 002°55'4 8.4
2018-Jan-24 00:30N 50°00' W 002°49'4 8.0
2018-Jan-23 23:59N 50°02' W 002°43'7 7.8
2018-Jan-23 23:08N 50°05' W 002°34'3 7.9
2018-Jan-23 22:46N 50°06' W 002°30'28 9.3
2018-Jan-23 19:46N 50°33' W 002°19'411.9
2018-Jan-23 19:26N 50°36' W 002°23'1 2.5
2018-Jan-23 18:59N 50°36' W 002°25'0 0.1
2018-Jan-23 18:26N 50°36' W 002°25'0 0.0
2018-Jan-23 17:59N 50°36' W 002°25'0 0.0
2018-Jan-23 17:14N 50°36' W 002°24'0 0.1
2018-Jan-23 16:59N 50°36' W 002°25'0 0.0
2018-Jan-23 15:11N 50°36' W 002°25'0 0.0
2018-Jan-23 14:50N 50°36' W 002°25'0 0.0
2018-Jan-23 12:08N 50°36' W 002°25'0 0.0
2018-Jan-23 11:38N 50°36' W 002°25'0 0.1
2018-Jan-23 09:08N 50°36' W 002°25'0 1.6
2018-Jan-23 09:00N 50°36' W 002°24'1 2.6
2018-Jan-23 08:27N 50°37' W 002°22'0 0.0
2018-Jan-23 00:46N 50°37' W 002°22'0 0.1
2018-Jan-23 00:22N 50°37' W 002°22'0 0.1
2018-Jan-22 23:58N 50°37' W 002°22'0 0.1
2018-Jan-22 23:19N 50°37' W 002°22'0 0.3
2018-Jan-22 22:43N 50°37' W 002°22'0 0.7
2018-Jan-22 22:29N 50°36' W 002°22'1 2.9
2018-Jan-22 22:00N 50°35' W 002°22'7 5.6
2018-Jan-22 20:42N 50°30' W 002°14'2 8.6
2018-Jan-22 20:29N 50°29' W 002°11'2011.1
2018-Jan-22 18:42N 50°25' W 001°41'3014.1
2018-Jan-22 16:36N 50°27' W 000°54'114.2
2018-Jan-22 16:30N 50°27' W 000°52'813.6
2018-Jan-22 15:57N 50°27' W 000°40'612.9
2018-Jan-22 15:30N 50°29' W 000°32'612.4
2018-Jan-22 15:00N 50°30' W 000°22'612.0
2018-Jan-22 14:30N 50°30' W 000°12'611.4
2018-Jan-22 14:00N 50°30' W 000°03'510.8
2018-Jan-22 13:30N 50°31' E 000°05'610.6
2018-Jan-22 12:59N 50°32' E 000°13'510.2
2018-Jan-22 12:29N 50°33' E 000°21'510.1
2018-Jan-22 12:00N 50°35' E 000°28'510.2
2018-Jan-22 11:30N 50°36' E 000°36'510.8
2018-Jan-22 11:00N 50°39' E 000°43'611.5
2018-Jan-22 10:30N 50°42' E 000°51'612.3
2018-Jan-22 10:00N 50°46' E 000°59'613.0
2018-Jan-22 09:30N 50°49' E 001°08'713.5
2018-Jan-22 09:00N 50°53' E 001°16'714.0
2018-Jan-22 08:30N 50°59' E 001°23'713.3
2018-Jan-22 08:00N 51°03' E 001°31'611.8
2018-Jan-22 07:31N 51°07' E 001°38'510.0
2018-Jan-22 07:01N 51°04' E 001°44'5 9.1
2018-Jan-22 06:30N 51°03' E 001°51'611.0
2018-Jan-22 06:00N 51°03' E 001°60'612.0
2018-Jan-22 05:30N 51°03' E 002°09'611.8
2018-Jan-22 05:00N 51°04' E 002°18'1 2.4
2018-Jan-22 04:27N 51°03' E 002°20'0 0.2
2018-Jan-22 03:57N 51°03' E 002°20'0 1.0
2018-Jan-22 03:30N 51°03' E 002°20'0 0.2
2018-Jan-22 02:59N 51°03' E 002°19'0 0.0
2018-Jan-22 02:29N 51°03' E 002°19'0 0.0
2018-Jan-22 01:59N 51°03' E 002°19'0 0.0
2018-Jan-22 01:29N 51°03' E 002°19'0 0.0
2018-Jan-22 00:59N 51°03' E 002°19'0 0.0
2018-Jan-22 00:30N 51°03' E 002°19'0 0.0
2018-Jan-21 23:59N 51°03' E 002°19'0 0.0
2018-Jan-21 23:26N 51°03' E 002°19'0 0.0
2018-Jan-21 22:59N 51°03' E 002°19'0 0.0
2018-Jan-21 22:29N 51°03' E 002°19'0 0.0
2018-Jan-21 21:59N 51°03' E 002°19'0 0.0
2018-Jan-21 21:23N 51°03' E 002°19'0 0.0
2018-Jan-21 21:00N 51°03' E 002°19'0 0.0
2018-Jan-21 20:26N 51°03' E 002°19'0 0.0
2018-Jan-21 19:59N 51°03' E 002°19'0 0.0
2018-Jan-21 19:29N 51°03' E 002°19'0 0.0
2018-Jan-21 18:59N 51°03' E 002°19'0 0.0
2018-Jan-21 18:29N 51°03' E 002°19'0 0.0
2018-Jan-21 18:00N 51°03' E 002°19'0 0.0
2018-Jan-21 17:29N 51°03' E 002°19'0 0.0
2018-Jan-21 16:56N 51°03' E 002°19'0 0.0
2018-Jan-21 16:26N 51°03' E 002°19'0 0.0
2018-Jan-21 15:59N 51°03' E 002°19'0 0.0
2018-Jan-21 15:23N 51°03' E 002°19'0 0.0
2018-Jan-21 14:59N 51°03' E 002°19'0 0.0
2018-Jan-21 14:20N 51°03' E 002°19'0 0.0
2018-Jan-21 13:59N 51°03' E 002°19'0 0.0
2018-Jan-21 13:29N 51°03' E 002°19'0 0.0
2018-Jan-21 12:53N 51°03' E 002°19'0 0.0
2018-Jan-21 12:29N 51°03' E 002°19'0 0.0
2018-Jan-21 11:57N 51°03' E 002°19'0 0.0
2018-Jan-21 11:26N 51°03' E 002°19'0 0.0
2018-Jan-21 10:59N 51°03' E 002°19'0 0.0
2018-Jan-21 10:29N 51°03' E 002°19'0 0.0
2018-Jan-21 09:39N 51°03' E 002°19'0 0.0
2018-Jan-21 09:29N 51°03' E 002°19'0 0.0
2018-Jan-21 08:59N 51°03' E 002°19'0 0.0
2018-Jan-21 08:30N 51°03' E 002°19'0 0.0
2018-Jan-21 07:50N 51°03' E 002°19'0 0.0
2018-Jan-21 07:29N 51°03' E 002°19'0 0.0
2018-Jan-21 06:56N 51°03' E 002°19'0 0.0
2018-Jan-21 06:30N 51°03' E 002°19'0 0.0
2018-Jan-21 05:59N 51°03' E 002°19'0 0.0
2018-Jan-21 05:17N 51°03' E 002°19'0 0.0
2018-Jan-21 04:56N 51°03' E 002°19'0 0.0
2018-Jan-21 04:29N 51°03' E 002°19'0 0.0
2018-Jan-21 03:56N 51°03' E 002°19'0 0.0
2018-Jan-21 03:26N 51°03' E 002°19'0 0.0
2018-Jan-21 02:59N 51°03' E 002°19'0 0.0
2018-Jan-21 02:30N 51°03' E 002°19'0 0.0
2018-Jan-21 01:50N 51°03' E 002°19'0 0.0
2018-Jan-21 01:29N 51°03' E 002°19'0 0.0
2018-Jan-21 00:59N 51°03' E 002°19'0 0.0
2018-Jan-21 00:29N 51°03' E 002°19'0 0.0
2018-Jan-20 23:59N 51°03' E 002°19'0 0.0
2018-Jan-20 23:29N 51°03' E 002°19'0 0.0
2018-Jan-20 22:59N 51°03' E 002°19'0 0.0
2018-Jan-20 22:30N 51°03' E 002°19'0 0.0
2018-Jan-20 21:59N 51°03' E 002°19'0 0.0
2018-Jan-20 21:29N 51°03' E 002°19'0 0.0
2018-Jan-20 20:59N 51°03' E 002°19'0 0.0
2018-Jan-20 20:29N 51°03' E 002°19'0 0.0
2018-Jan-20 19:50N 51°03' E 002°19'0 0.0
2018-Jan-20 19:24N 51°03' E 002°19'0 0.0
2018-Jan-20 18:59N 51°03' E 002°19'0 0.0
2018-Jan-20 18:29N 51°03' E 002°19'0 0.0
2018-Jan-20 17:59N 51°03' E 002°19'0 0.0
2018-Jan-20 17:23N 51°03' E 002°19'0 0.0
2018-Jan-20 16:59N 51°03' E 002°19'0 0.0
2018-Jan-20 16:17N 51°03' E 002°19'0 0.0
2018-Jan-20 15:59N 51°03' E 002°19'0 0.0
2018-Jan-20 15:29N 51°03' E 002°19'0 0.0
2018-Jan-20 14:53N 51°03' E 002°19'0 0.0
2018-Jan-20 14:29N 51°03' E 002°19'0 0.0
2018-Jan-20 13:56N 51°03' E 002°19'0 0.0
2018-Jan-20 13:29N 51°03' E 002°19'0 0.0
2018-Jan-20 12:59N 51°03' E 002°19'0 0.0
2018-Jan-20 12:29N 51°03' E 002°19'0 0.0
2018-Jan-20 11:59N 51°03' E 002°19'0 0.0
2018-Jan-20 11:26N 51°03' E 002°19'0 0.0
2018-Jan-20 10:59N 51°03' E 002°19'0 0.0
2018-Jan-20 10:29N 51°03' E 002°19'0 0.0
2018-Jan-20 09:59N 51°03' E 002°19'0 0.0
2018-Jan-20 09:29N 51°03' E 002°19'0 0.0
2018-Jan-20 08:56N 51°03' E 002°19'0 0.0
2018-Jan-20 08:29N 51°03' E 002°19'0 0.0
2018-Jan-20 07:59N 51°03' E 002°19'0 0.0
2018-Jan-20 07:29N 51°03' E 002°19'0 0.0
2018-Jan-20 06:59N 51°03' E 002°19'0 0.0
2018-Jan-20 06:29N 51°03' E 002°19'0 0.0
2018-Jan-20 05:59N 51°03' E 002°19'0 0.0
2018-Jan-20 05:29N 51°03' E 002°19'0 0.0
2018-Jan-20 04:59N 51°03' E 002°19'0 0.0
2018-Jan-20 03:50N 51°03' E 002°19'0 0.0
2018-Jan-20 03:26N 51°03' E 002°19'0 0.0
2018-Jan-20 02:59N 51°03' E 002°19'0 0.0
2018-Jan-20 02:29N 51°03' E 002°19'0 0.0
2018-Jan-20 01:59N 51°03' E 002°19'0 0.0
2018-Jan-20 01:26N 51°03' E 002°19'0 0.0
2018-Jan-20 00:53N 51°03' E 002°19'0 0.0
2018-Jan-20 00:26N 51°03' E 002°19'0 0.0
2018-Jan-19 23:59N 51°03' E 002°19'0 0.0
2018-Jan-19 23:26N 51°03' E 002°19'0 0.0
2018-Jan-19 22:56N 51°03' E 002°19'0 0.0
2018-Jan-19 22:29N 51°03' E 002°19'0 0.0
2018-Jan-19 21:56N 51°03' E 002°19'0 0.0
2018-Jan-19 21:20N 51°03' E 002°19'0 0.0
2018-Jan-19 20:59N 51°03' E 002°19'0 0.0
2018-Jan-19 20:26N 51°03' E 002°19'0 0.0
2018-Jan-19 19:56N 51°03' E 002°19'0 0.0
2018-Jan-19 19:26N 51°03' E 002°19'0 0.0
2018-Jan-19 18:59N 51°03' E 002°19'0 0.0
2018-Jan-19 18:29N 51°03' E 002°19'0 0.0
2018-Jan-19 17:53N 51°03' E 002°19'0 0.0
2018-Jan-19 17:26N 51°03' E 002°19'0 0.0
2018-Jan-19 16:56N 51°03' E 002°19'1 1.3
2018-Jan-19 16:30N 51°03' E 002°20'0 0.2
2018-Jan-19 15:50N 51°03' E 002°21'0 1.1
2018-Jan-19 15:26N 51°04' E 002°21'2 5.2
2018-Jan-19 15:00N 51°04' E 002°17'3 6.8
2018-Jan-19 14:30N 51°03' E 002°12'4 7.4
2018-Jan-19 14:00N 51°03' E 002°06'4 8.9
2018-Jan-19 13:30N 51°02' E 001°59'612.3
2018-Jan-19 13:00N 51°03' E 001°50'1 2.1
2018-Jan-19 12:30N 51°03' E 001°48'0 0.0
2018-Jan-19 11:58N 51°03' E 001°48'0 0.1
2018-Jan-19 11:19N 51°03' E 001°48'0 0.2
2018-Jan-19 10:59N 51°03' E 001°48'0 0.6
2018-Jan-19 10:28N 51°03' E 001°48'0 0.1
2018-Jan-19 09:58N 51°03' E 001°48'0 0.0
2018-Jan-19 09:25N 51°03' E 001°48'0 0.0
2018-Jan-19 08:58N 51°03' E 001°48'0 0.0
2018-Jan-19 08:28N 51°03' E 001°48'0 0.0
2018-Jan-19 07:58N 51°03' E 001°48'0 0.0
2018-Jan-19 07:28N 51°03' E 001°48'0 0.0
2018-Jan-19 06:58N 51°03' E 001°48'0 0.0
2018-Jan-19 06:28N 51°03' E 001°48'0 0.3
2018-Jan-19 05:58N 51°03' E 001°48'0 0.3
2018-Jan-19 05:28N 51°03' E 001°48'0 0.2
2018-Jan-19 04:58N 51°03' E 001°48'0 0.1
2018-Jan-19 04:28N 51°03' E 001°48'0 0.0
2018-Jan-19 03:58N 51°03' E 001°48'0 0.0
2018-Jan-19 03:25N 51°03' E 001°48'0 0.0
2018-Jan-19 02:58N 51°03' E 001°48'0 0.0
2018-Jan-19 02:28N 51°03' E 001°48'0 0.0
2018-Jan-19 01:55N 51°03' E 001°48'0 0.0
2018-Jan-19 01:28N 51°03' E 001°48'0 0.0
2018-Jan-19 00:58N 51°03' E 001°48'0 0.0
2018-Jan-19 00:25N 51°03' E 001°48'0 0.1
2018-Jan-18 23:55N 51°03' E 001°48'0 0.0
2018-Jan-18 23:25N 51°03' E 001°48'0 0.1
2018-Jan-18 22:58N 51°03' E 001°48'0 0.5
2018-Jan-18 22:25N 51°03' E 001°48'0 0.2
2018-Jan-18 21:58N 51°03' E 001°48'0 0.0
2018-Jan-18 21:28N 51°03' E 001°48'0 0.0
2018-Jan-18 20:58N 51°03' E 001°48'0 0.0
2018-Jan-18 20:28N 51°03' E 001°48'0 0.0
2018-Jan-18 19:58N 51°03' E 001°48'0 0.0
2018-Jan-18 19:28N 51°03' E 001°48'0 0.0
2018-Jan-18 18:58N 51°03' E 001°48'0 0.0
2018-Jan-18 18:28N 51°03' E 001°48'0 0.1
2018-Jan-18 17:58N 51°03' E 001°48'0 0.5
2018-Jan-18 17:28N 51°03' E 001°48'0 0.3
2018-Jan-18 16:58N 51°03' E 001°48'0 0.1
2018-Jan-18 16:25N 51°03' E 001°48'0 0.0
2018-Jan-18 15:59N 51°03' E 001°48'1 1.2
2018-Jan-18 15:29N 51°04' E 001°49'2 3.3
2018-Jan-18 15:00N 51°05' E 001°51'1 2.3
2018-Jan-18 14:30N 51°04' E 001°49'1 2.1
2018-Jan-18 14:00N 51°03' E 001°48'1 1.6
2018-Jan-18 13:30N 51°04' E 001°48'1 2.5
2018-Jan-18 13:00N 51°05' E 001°50'1 2.6
2018-Jan-18 12:30N 51°04' E 001°49'0 0.7
2018-Jan-18 12:00N 51°03' E 001°48'1 1.9
2018-Jan-18 11:30N 51°04' E 001°50'0 0.6
2018-Jan-18 11:00N 51°04' E 001°50'1 1.5
2018-Jan-18 10:30N 51°04' E 001°49'1 1.7
2018-Jan-18 10:00N 51°04' E 001°50'1 1.5
2018-Jan-18 09:30N 51°04' E 001°49'0 0.9
2018-Jan-18 09:00N 51°04' E 001°48'1 1.5
2018-Jan-18 08:30N 51°04' E 001°49'0 0.2
2018-Jan-18 08:00N 51°04' E 001°49'2 3.1
2018-Jan-18 07:30N 51°03' E 001°49'0 0.9
2018-Jan-18 07:00N 51°03' E 001°48'1 1.0
2018-Jan-18 06:30N 51°04' E 001°49'0 0.3
2018-Jan-18 06:00N 51°04' E 001°49'0 0.6
2018-Jan-18 05:30N 51°04' E 001°49'0 0.3
2018-Jan-18 05:00N 51°04' E 001°49'0 1.0
2018-Jan-18 04:30N 51°04' E 001°49'0 0.6
2018-Jan-18 04:00N 51°04' E 001°49'0 0.2
2018-Jan-18 03:30N 51°04' E 001°49'0 0.6
2018-Jan-18 03:00N 51°04' E 001°49'0 0.1
2018-Jan-18 02:31N 51°04' E 001°49'0 0.7
2018-Jan-18 02:00N 51°04' E 001°49'1 1.1
2018-Jan-18 01:30N 51°04' E 001°50'1 2.0
2018-Jan-18 01:00N 51°04' E 001°48'0 0.4
2018-Jan-18 00:00N 51°04' E 001°48'0 0.2
2018-Jan-17 23:57N 51°04' E 001°48'  
Track history (hours):
 
Tides and Currents Weather Stations Pressure Air Temp Water Temp Dewpoint Dewpoint Depression Visibility Wind Speed Wind Dir Waves Ship Positions

Am Tubarao

Last reported at 2018-Jan-24 05:22 UTC. Time now 2018-Feb-18 20:39 UTC.
Position N 49°45' W 003°50'.
Warning: this ship's position is 25 days out of date.

Length 230 m; draft 8.9 m.

Type: Cargo ship. MMSI: 636015171.

Date/timePositionNaut miles runAvg speedWind from/ knotsBaromVisibWave heightAir tempDewpointWater temp
2018-Jan-24 05:22N 49°45' W 003°50'3 7.8
2018-Jan-24 05:00N 49°46' W 003°47'4 8.5
2018-Jan-24 04:29N 49°48' W 003°41'4 9.0
2018-Jan-24 04:00N 49°51' W 003°35'5 9.2
2018-Jan-24 03:26N 49°53' W 003°28'4 8.9
2018-Jan-24 03:00N 49°55' W 003°23'5 9.6
2018-Jan-24 02:28N 49°55' W 003°15'4 9.1
2018-Jan-24 01:59N 49°57' W 003°08'5 8.7
2018-Jan-24 01:27N 49°58' W 003°01'4 8.5
2018-Jan-24 01:00N 49°59' W 002°55'4 8.4
2018-Jan-24 00:30N 50°00' W 002°49'4 8.0
2018-Jan-23 23:59N 50°02' W 002°43'7 7.8
2018-Jan-23 23:08N 50°05' W 002°34'3 7.9
2018-Jan-23 22:46N 50°06' W 002°30'28 9.3
2018-Jan-23 19:46N 50°33' W 002°19'411.9
2018-Jan-23 19:26N 50°36' W 002°23'1 2.5
2018-Jan-23 18:59N 50°36' W 002°25'0 0.1
2018-Jan-23 18:26N 50°36' W 002°25'0 0.0
2018-Jan-23 17:59N 50°36' W 002°25'0 0.0
2018-Jan-23 17:14N 50°36' W 002°24'0 0.1
2018-Jan-23 16:59N 50°36' W 002°25'0 0.0
2018-Jan-23 15:11N 50°36' W 002°25'0 0.0
2018-Jan-23 14:50N 50°36' W 002°25'0 0.0
2018-Jan-23 12:08N 50°36' W 002°25'0 0.0
2018-Jan-23 11:38N 50°36' W 002°25'0 0.1
2018-Jan-23 09:08N 50°36' W 002°25'0 1.6
2018-Jan-23 09:00N 50°36' W 002°24'1 2.6
2018-Jan-23 08:27N 50°37' W 002°22'0 0.0
2018-Jan-23 00:46N 50°37' W 002°22'0 0.1
2018-Jan-23 00:22N 50°37' W 002°22'0 0.1
2018-Jan-22 23:58N 50°37' W 002°22'0 0.1
2018-Jan-22 23:19N 50°37' W 002°22'0 0.3
2018-Jan-22 22:43N 50°37' W 002°22'0 0.7
2018-Jan-22 22:29N 50°36' W 002°22'1 2.9
2018-Jan-22 22:00N 50°35' W 002°22'7 5.6
2018-Jan-22 20:42N 50°30' W 002°14'2 8.6
2018-Jan-22 20:29N 50°29' W 002°11'2011.1
2018-Jan-22 18:42N 50°25' W 001°41'3014.1
2018-Jan-22 16:36N 50°27' W 000°54'114.2
2018-Jan-22 16:30N 50°27' W 000°52'813.6
2018-Jan-22 15:57N 50°27' W 000°40'612.9
2018-Jan-22 15:30N 50°29' W 000°32'612.4
2018-Jan-22 15:00N 50°30' W 000°22'612.0
2018-Jan-22 14:30N 50°30' W 000°12'611.4
2018-Jan-22 14:00N 50°30' W 000°03'510.8
2018-Jan-22 13:30N 50°31' E 000°05'610.6
2018-Jan-22 12:59N 50°32' E 000°13'510.2
2018-Jan-22 12:29N 50°33' E 000°21'510.1
2018-Jan-22 12:00N 50°35' E 000°28'510.2
2018-Jan-22 11:30N 50°36' E 000°36'510.8
2018-Jan-22 11:00N 50°39' E 000°43'611.5
2018-Jan-22 10:30N 50°42' E 000°51'612.3
2018-Jan-22 10:00N 50°46' E 000°59'613.0
2018-Jan-22 09:30N 50°49' E 001°08'713.5
2018-Jan-22 09:00N 50°53' E 001°16'714.0
2018-Jan-22 08:30N 50°59' E 001°23'713.3
2018-Jan-22 08:00N 51°03' E 001°31'611.8
2018-Jan-22 07:31N 51°07' E 001°38'510.0
2018-Jan-22 07:01N 51°04' E 001°44'5 9.1
2018-Jan-22 06:30N 51°03' E 001°51'611.0
2018-Jan-22 06:00N 51°03' E 001°60'612.0
2018-Jan-22 05:30N 51°03' E 002°09'611.8
2018-Jan-22 05:00N 51°04' E 002°18'1 2.4
2018-Jan-22 04:27N 51°03' E 002°20'0 0.2
2018-Jan-22 03:57N 51°03' E 002°20'0 1.0
2018-Jan-22 03:30N 51°03' E 002°20'0 0.2
2018-Jan-22 02:59N 51°03' E 002°19'0 0.0
2018-Jan-22 02:29N 51°03' E 002°19'0 0.0
2018-Jan-22 01:59N 51°03' E 002°19'0 0.0
2018-Jan-22 01:29N 51°03' E 002°19'0 0.0
2018-Jan-22 00:59N 51°03' E 002°19'0 0.0
2018-Jan-22 00:30N 51°03' E 002°19'0 0.0
2018-Jan-21 23:59N 51°03' E 002°19'0 0.0
2018-Jan-21 23:26N 51°03' E 002°19'0 0.0
2018-Jan-21 22:59N 51°03' E 002°19'0 0.0
2018-Jan-21 22:29N 51°03' E 002°19'0 0.0
2018-Jan-21 21:59N 51°03' E 002°19'0 0.0
2018-Jan-21 21:23N 51°03' E 002°19'0 0.0
2018-Jan-21 21:00N 51°03' E 002°19'0 0.0
2018-Jan-21 20:26N 51°03' E 002°19'0 0.0
2018-Jan-21 19:59N 51°03' E 002°19'0 0.0
2018-Jan-21 19:29N 51°03' E 002°19'0 0.0
2018-Jan-21 18:59N 51°03' E 002°19'0 0.0
2018-Jan-21 18:29N 51°03' E 002°19'0 0.0
2018-Jan-21 18:00N 51°03' E 002°19'0 0.0
2018-Jan-21 17:29N 51°03' E 002°19'0 0.0
2018-Jan-21 16:56N 51°03' E 002°19'0 0.0
2018-Jan-21 16:26N 51°03' E 002°19'0 0.0
2018-Jan-21 15:59N 51°03' E 002°19'0 0.0
2018-Jan-21 15:23N 51°03' E 002°19'0 0.0
2018-Jan-21 14:59N 51°03' E 002°19'0 0.0
2018-Jan-21 14:20N 51°03' E 002°19'0 0.0
2018-Jan-21 13:59N 51°03' E 002°19'0 0.0
2018-Jan-21 13:29N 51°03' E 002°19'0 0.0
2018-Jan-21 12:53N 51°03' E 002°19'0 0.0
2018-Jan-21 12:29N 51°03' E 002°19'0 0.0
2018-Jan-21 11:57N 51°03' E 002°19'0 0.0
2018-Jan-21 11:26N 51°03' E 002°19'0 0.0
2018-Jan-21 10:59N 51°03' E 002°19'0 0.0
2018-Jan-21 10:29N 51°03' E 002°19'0 0.0
2018-Jan-21 09:39N 51°03' E 002°19'0 0.0
2018-Jan-21 09:29N 51°03' E 002°19'0 0.0
2018-Jan-21 08:59N 51°03' E 002°19'0 0.0
2018-Jan-21 08:30N 51°03' E 002°19'0 0.0
2018-Jan-21 07:50N 51°03' E 002°19'0 0.0
2018-Jan-21 07:29N 51°03' E 002°19'0 0.0
2018-Jan-21 06:56N 51°03' E 002°19'0 0.0
2018-Jan-21 06:30N 51°03' E 002°19'0 0.0
2018-Jan-21 05:59N 51°03' E 002°19'0 0.0
2018-Jan-21 05:17N 51°03' E 002°19'0 0.0
2018-Jan-21 04:56N 51°03' E 002°19'0 0.0
2018-Jan-21 04:29N 51°03' E 002°19'0 0.0
2018-Jan-21 03:56N 51°03' E 002°19'0 0.0
2018-Jan-21 03:26N 51°03' E 002°19'0 0.0
2018-Jan-21 02:59N 51°03' E 002°19'0 0.0
2018-Jan-21 02:30N 51°03' E 002°19'0 0.0
2018-Jan-21 01:50N 51°03' E 002°19'0 0.0
2018-Jan-21 01:29N 51°03' E 002°19'0 0.0
2018-Jan-21 00:59N 51°03' E 002°19'0 0.0
2018-Jan-21 00:29N 51°03' E 002°19'0 0.0
2018-Jan-20 23:59N 51°03' E 002°19'0 0.0
2018-Jan-20 23:29N 51°03' E 002°19'0 0.0
2018-Jan-20 22:59N 51°03' E 002°19'0 0.0
2018-Jan-20 22:30N 51°03' E 002°19'0 0.0
2018-Jan-20 21:59N 51°03' E 002°19'0 0.0
2018-Jan-20 21:29N 51°03' E 002°19'0 0.0
2018-Jan-20 20:59N 51°03' E 002°19'0 0.0
2018-Jan-20 20:29N 51°03' E 002°19'0 0.0
2018-Jan-20 19:50N 51°03' E 002°19'0 0.0
2018-Jan-20 19:24N 51°03' E 002°19'0 0.0
2018-Jan-20 18:59N 51°03' E 002°19'0 0.0
2018-Jan-20 18:29N 51°03' E 002°19'0 0.0
2018-Jan-20 17:59N 51°03' E 002°19'0 0.0
2018-Jan-20 17:23N 51°03' E 002°19'0 0.0
2018-Jan-20 16:59N 51°03' E 002°19'0 0.0
2018-Jan-20 16:17N 51°03' E 002°19'0 0.0
2018-Jan-20 15:59N 51°03' E 002°19'0 0.0
2018-Jan-20 15:29N 51°03' E 002°19'0 0.0
2018-Jan-20 14:53N 51°03' E 002°19'0 0.0
2018-Jan-20 14:29N 51°03' E 002°19'0 0.0
2018-Jan-20 13:56N 51°03' E 002°19'0 0.0
2018-Jan-20 13:29N 51°03' E 002°19'0 0.0
2018-Jan-20 12:59N 51°03' E 002°19'0 0.0
2018-Jan-20 12:29N 51°03' E 002°19'0 0.0
2018-Jan-20 11:59N 51°03' E 002°19'0 0.0
2018-Jan-20 11:26N 51°03' E 002°19'0 0.0
2018-Jan-20 10:59N 51°03' E 002°19'0 0.0
2018-Jan-20 10:29N 51°03' E 002°19'0 0.0
2018-Jan-20 09:59N 51°03' E 002°19'0 0.0
2018-Jan-20 09:29N 51°03' E 002°19'0 0.0
2018-Jan-20 08:56N 51°03' E 002°19'0 0.0
2018-Jan-20 08:29N 51°03' E 002°19'0 0.0
2018-Jan-20 07:59N 51°03' E 002°19'0 0.0
2018-Jan-20 07:29N 51°03' E 002°19'0 0.0
2018-Jan-20 06:59N 51°03' E 002°19'0 0.0
2018-Jan-20 06:29N 51°03' E 002°19'0 0.0
2018-Jan-20 05:59N 51°03' E 002°19'0 0.0
2018-Jan-20 05:29N 51°03' E 002°19'0 0.0
2018-Jan-20 04:59N 51°03' E 002°19'0 0.0
2018-Jan-20 03:50N 51°03' E 002°19'0 0.0
2018-Jan-20 03:26N 51°03' E 002°19'0 0.0
2018-Jan-20 02:59N 51°03' E 002°19'0 0.0
2018-Jan-20 02:29N 51°03' E 002°19'0 0.0
2018-Jan-20 01:59N 51°03' E 002°19'0 0.0
2018-Jan-20 01:26N 51°03' E 002°19'0 0.0
2018-Jan-20 00:53N 51°03' E 002°19'0 0.0
2018-Jan-20 00:26N 51°03' E 002°19'0 0.0
2018-Jan-19 23:59N 51°03' E 002°19'0 0.0
2018-Jan-19 23:26N 51°03' E 002°19'0 0.0
2018-Jan-19 22:56N 51°03' E 002°19'0 0.0
2018-Jan-19 22:29N 51°03' E 002°19'0 0.0
2018-Jan-19 21:56N 51°03' E 002°19'0 0.0
2018-Jan-19 21:20N 51°03' E 002°19'0 0.0
2018-Jan-19 20:59N 51°03' E 002°19'0 0.0
2018-Jan-19 20:26N 51°03' E 002°19'0 0.0
2018-Jan-19 19:56N 51°03' E 002°19'0 0.0
2018-Jan-19 19:26N 51°03' E 002°19'0 0.0
2018-Jan-19 18:59N 51°03' E 002°19'0 0.0
2018-Jan-19 18:29N 51°03' E 002°19'0 0.0
2018-Jan-19 17:53N 51°03' E 002°19'0 0.0
2018-Jan-19 17:26N 51°03' E 002°19'0 0.0
2018-Jan-19 16:56N 51°03' E 002°19'1 1.3
2018-Jan-19 16:30N 51°03' E 002°20'0 0.2
2018-Jan-19 15:50N 51°03' E 002°21'0 1.1
2018-Jan-19 15:26N 51°04' E 002°21'2 5.2
2018-Jan-19 15:00N 51°04' E 002°17'3 6.8
2018-Jan-19 14:30N 51°03' E 002°12'4 7.4
2018-Jan-19 14:00N 51°03' E 002°06'4 8.9
2018-Jan-19 13:30N 51°02' E 001°59'612.3
2018-Jan-19 13:00N 51°03' E 001°50'1 2.1
2018-Jan-19 12:30N 51°03' E 001°48'0 0.0
2018-Jan-19 11:58N 51°03' E 001°48'0 0.1
2018-Jan-19 11:19N 51°03' E 001°48'0 0.2
2018-Jan-19 10:59N 51°03' E 001°48'0 0.6
2018-Jan-19 10:28N 51°03' E 001°48'0 0.1
2018-Jan-19 09:58N 51°03' E 001°48'0 0.0
2018-Jan-19 09:25N 51°03' E 001°48'0 0.0
2018-Jan-19 08:58N 51°03' E 001°48'0 0.0
2018-Jan-19 08:28N 51°03' E 001°48'0 0.0
2018-Jan-19 07:58N 51°03' E 001°48'0 0.0
2018-Jan-19 07:28N 51°03' E 001°48'0 0.0
2018-Jan-19 06:58N 51°03' E 001°48'0 0.0
2018-Jan-19 06:28N 51°03' E 001°48'0 0.3
2018-Jan-19 05:58N 51°03' E 001°48'0 0.3
2018-Jan-19 05:28N 51°03' E 001°48'0 0.2
2018-Jan-19 04:58N 51°03' E 001°48'0 0.1
2018-Jan-19 04:28N 51°03' E 001°48'0 0.0
2018-Jan-19 03:58N 51°03' E 001°48'0 0.0
2018-Jan-19 03:25N 51°03' E 001°48'0 0.0
2018-Jan-19 02:58N 51°03' E 001°48'0 0.0
2018-Jan-19 02:28N 51°03' E 001°48'0 0.0
2018-Jan-19 01:55N 51°03' E 001°48'0 0.0
2018-Jan-19 01:28N 51°03' E 001°48'0 0.0
2018-Jan-19 00:58N 51°03' E 001°48'0 0.0
2018-Jan-19 00:25N 51°03' E 001°48'0 0.1
2018-Jan-18 23:55N 51°03' E 001°48'0 0.0
2018-Jan-18 23:25N 51°03' E 001°48'0 0.1
2018-Jan-18 22:58N 51°03' E 001°48'0 0.5
2018-Jan-18 22:25N 51°03' E 001°48'0 0.2
2018-Jan-18 21:58N 51°03' E 001°48'0 0.0
2018-Jan-18 21:28N 51°03' E 001°48'0 0.0
2018-Jan-18 20:58N 51°03' E 001°48'0 0.0
2018-Jan-18 20:28N 51°03' E 001°48'0 0.0
2018-Jan-18 19:58N 51°03' E 001°48'0 0.0
2018-Jan-18 19:28N 51°03' E 001°48'0 0.0
2018-Jan-18 18:58N 51°03' E 001°48'0 0.0
2018-Jan-18 18:28N 51°03' E 001°48'0 0.1
2018-Jan-18 17:58N 51°03' E 001°48'0 0.5
2018-Jan-18 17:28N 51°03' E 001°48'0 0.3
2018-Jan-18 16:58N 51°03' E 001°48'0 0.1
2018-Jan-18 16:25N 51°03' E 001°48'0 0.0
2018-Jan-18 15:59N 51°03' E 001°48'1 1.2
2018-Jan-18 15:29N 51°04' E 001°49'2 3.3
2018-Jan-18 15:00N 51°05' E 001°51'1 2.3
2018-Jan-18 14:30N 51°04' E 001°49'1 2.1
2018-Jan-18 14:00N 51°03' E 001°48'1 1.6
2018-Jan-18 13:30N 51°04' E 001°48'1 2.5
2018-Jan-18 13:00N 51°05' E 001°50'1 2.6
2018-Jan-18 12:30N 51°04' E 001°49'0 0.7
2018-Jan-18 12:00N 51°03' E 001°48'1 1.9
2018-Jan-18 11:30N 51°04' E 001°50'0 0.6
2018-Jan-18 11:00N 51°04' E 001°50'1 1.5
2018-Jan-18 10:30N 51°04' E 001°49'1 1.7
2018-Jan-18 10:00N 51°04' E 001°50'1 1.5
2018-Jan-18 09:30N 51°04' E 001°49'0 0.9
2018-Jan-18 09:00N 51°04' E 001°48'1 1.5
2018-Jan-18 08:30N 51°04' E 001°49'0 0.2
2018-Jan-18 08:00N 51°04' E 001°49'2 3.1
2018-Jan-18 07:30N 51°03' E 001°49'0 0.9
2018-Jan-18 07:00N 51°03' E 001°48'1 1.0
2018-Jan-18 06:30N 51°04' E 001°49'0 0.3
2018-Jan-18 06:00N 51°04' E 001°49'0 0.6
2018-Jan-18 05:30N 51°04' E 001°49'0 0.3
2018-Jan-18 05:00N 51°04' E 001°49'0 1.0
2018-Jan-18 04:30N 51°04' E 001°49'0 0.6
2018-Jan-18 04:00N 51°04' E 001°49'0 0.2
2018-Jan-18 03:30N 51°04' E 001°49'0 0.6
2018-Jan-18 03:00N 51°04' E 001°49'0 0.1
2018-Jan-18 02:31N 51°04' E 001°49'0 0.7
2018-Jan-18 02:00N 51°04' E 001°49'1 1.1
2018-Jan-18 01:30N 51°04' E 001°50'1 2.0
2018-Jan-18 01:00N 51°04' E 001°48'0 0.4
2018-Jan-18 00:00N 51°04' E 001°48'0 0.2
2018-Jan-17 23:57N 51°04' E 001°48'  

Dump ship's entire track history